createdAt,value
2023-02-12T00:01:18.185Z,11.10
2023-02-12T00:03:46.265Z,11.09
2023-02-12T00:06:16.220Z,11.10
2023-02-12T00:08:44.747Z,11.08
2023-02-12T00:11:15.570Z,11.05
2023-02-12T00:13:43.775Z,11.01
2023-02-12T00:16:14.483Z,10.99
2023-02-12T00:18:43.025Z,10.99
2023-02-12T00:21:11.627Z,11.00
2023-02-12T00:23:42.246Z,11.03
2023-02-12T00:26:11.276Z,11.05
2023-02-12T00:28:39.857Z,11.09
2023-02-12T00:31:09.235Z,11.14
2023-02-12T00:33:37.551Z,11.19
2023-02-12T00:36:06.607Z,11.23
2023-02-12T00:38:34.687Z,11.24
2023-02-12T00:41:04.070Z,11.28
2023-02-12T00:43:32.015Z,11.32
2023-02-12T00:46:00.083Z,11.36
2023-02-12T00:48:28.189Z,11.43
2023-02-12T00:50:56.122Z,11.46
2023-02-12T00:53:24.117Z,11.51
2023-02-12T00:55:52.221Z,11.54
2023-02-12T00:58:22.208Z,11.52
2023-02-12T01:00:50.297Z,11.48
2023-02-12T01:03:18.239Z,11.42
2023-02-12T01:05:46.166Z,11.41
2023-02-12T01:08:15.086Z,11.39
2023-02-12T01:10:43.231Z,11.35
2023-02-12T01:13:14.191Z,11.29
2023-02-12T01:15:44.181Z,11.22
2023-02-12T01:18:12.644Z,11.17
2023-02-12T01:20:41.484Z,11.11
2023-02-12T01:23:09.711Z,11.07
2023-02-12T01:25:39.614Z,11.00
2023-02-12T01:28:07.667Z,10.97
2023-02-12T01:30:38.168Z,10.95
2023-02-12T01:33:07.488Z,10.92
2023-02-12T01:35:35.471Z,10.88
2023-02-12T01:38:03.525Z,10.82
2023-02-12T01:40:31.468Z,10.82
2023-02-12T01:43:02.518Z,10.80
2023-02-12T01:45:46.566Z,10.75
2023-02-12T01:48:18.864Z,10.71
2023-02-12T01:50:48.799Z,10.66
2023-02-12T01:53:20.416Z,10.63
2023-02-12T01:55:56.708Z,10.61
2023-02-12T01:58:28.219Z,10.61
2023-02-12T02:00:56.267Z,10.62
2023-02-12T02:03:25.781Z,10.64
2023-02-12T02:05:58.047Z,10.62
2023-02-12T02:08:26.755Z,10.61
2023-02-12T02:10:54.877Z,10.60
2023-02-12T02:13:40.028Z,10.57
2023-02-12T02:16:16.887Z,10.53
2023-02-12T02:18:54.545Z,10.49
2023-02-12T02:21:58.512Z,10.47
2023-02-12T02:24:44.757Z,10.39
2023-02-12T02:27:24.148Z,10.38
2023-02-12T02:30:30.326Z,10.35
2023-02-12T02:33:07.909Z,10.32
2023-02-12T02:35:42.973Z,10.28
2023-02-12T02:38:23.525Z,10.23
2023-02-12T02:41:00.611Z,10.23
2023-02-12T02:43:32.114Z,10.19
2023-02-12T02:46:06.734Z,10.18
2023-02-12T02:48:38.803Z,10.15
2023-02-12T02:51:11.653Z,10.16
2023-02-12T02:53:44.578Z,10.14
2023-02-12T02:56:17.663Z,10.13
2023-02-12T02:58:52.524Z,10.12
2023-02-12T03:01:25.849Z,10.09
2023-02-12T03:03:59.159Z,10.06
2023-02-12T03:06:34.216Z,10.06
2023-02-12T03:09:08.231Z,10.04
2023-02-12T03:11:37.369Z,10.03
2023-02-12T03:14:11.512Z,9.98
2023-02-12T03:16:48.098Z,9.92
2023-02-12T03:19:20.088Z,9.85
2023-02-12T03:21:52.170Z,9.79
2023-02-12T03:24:25.337Z,9.76
2023-02-12T03:26:57.215Z,9.71
2023-02-12T03:29:25.184Z,9.70
2023-02-12T03:32:07.072Z,9.64
2023-02-12T03:34:47.464Z,9.62
2023-02-12T03:37:20.618Z,9.58
2023-02-12T03:39:56.715Z,9.54
2023-02-12T03:42:34.699Z,9.51
2023-02-12T03:45:10.246Z,9.48
2023-02-12T03:47:47.435Z,9.47
2023-02-12T03:50:18.374Z,9.45
2023-02-12T03:52:47.300Z,9.46
2023-02-12T03:55:15.626Z,9.47
2023-02-12T03:57:46.634Z,9.51
2023-02-12T04:00:20.415Z,9.54
2023-02-12T04:02:50.258Z,9.57
2023-02-12T04:05:20.648Z,9.55
2023-02-12T04:07:48.875Z,9.55
2023-02-12T04:10:17.616Z,9.53
2023-02-12T04:12:50.483Z,9.48
2023-02-12T04:15:44.957Z,9.44
2023-02-12T04:18:20.718Z,9.39
2023-02-12T04:20:56.489Z,9.34
2023-02-12T04:23:41.396Z,9.30
2023-02-12T04:26:16.689Z,9.26
2023-02-12T04:28:50.386Z,9.28
2023-02-12T04:31:25.423Z,9.29
2023-02-12T04:34:07.606Z,9.28
2023-02-12T04:36:39.916Z,9.29
2023-02-12T04:39:13.221Z,9.28
2023-02-12T04:41:41.279Z,9.29
2023-02-12T04:44:20.944Z,9.29
2023-02-12T04:46:49.057Z,9.30
2023-02-12T04:49:19.994Z,9.30
2023-02-12T04:51:48.482Z,9.29
2023-02-12T04:54:17.902Z,9.31
2023-02-12T04:56:46.388Z,9.32
2023-02-12T04:59:15.209Z,9.34
2023-02-12T05:01:44.304Z,9.38
2023-02-12T05:04:13.687Z,9.43
2023-02-12T05:06:44.536Z,9.45
2023-02-12T05:09:15.981Z,9.48
2023-02-12T05:11:45.428Z,9.52
2023-02-12T05:14:14.141Z,9.53
2023-02-12T05:16:42.119Z,9.55
2023-02-12T05:19:10.646Z,9.57
2023-02-12T05:21:39.346Z,9.57
2023-02-12T05:24:09.513Z,9.57
2023-02-12T05:26:38.117Z,9.58
2023-02-12T05:29:06.014Z,9.52
2023-02-12T05:31:34.188Z,9.50
2023-02-12T05:34:02.478Z,9.52
2023-02-12T05:36:30.592Z,9.56
2023-02-12T05:39:01.682Z,9.64
2023-02-12T05:41:35.177Z,9.78
2023-02-12T05:44:03.676Z,9.87
2023-02-12T05:46:32.300Z,10.00
2023-02-12T05:49:00.360Z,10.11
2023-02-12T05:51:28.852Z,10.18
2023-02-12T05:54:00.349Z,10.27
2023-02-12T05:56:31.900Z,10.31
2023-02-12T05:59:03.651Z,10.37
2023-02-12T06:01:34.394Z,10.45
2023-02-12T06:04:03.682Z,10.51
2023-02-12T06:06:32.949Z,10.60
2023-02-12T06:09:01.503Z,10.72
2023-02-12T06:11:30.944Z,10.80
2023-02-12T06:13:58.892Z,10.90
2023-02-12T06:16:29.164Z,10.98
2023-02-12T06:18:58.236Z,11.06
2023-02-12T06:21:28.073Z,11.15
2023-02-12T06:23:56.502Z,11.23
2023-02-12T06:26:24.907Z,11.30
2023-02-12T06:28:54.587Z,11.38
2023-02-12T06:31:25.011Z,11.47
2023-02-12T06:33:53.984Z,11.56
2023-02-12T06:36:22.680Z,11.64
2023-02-12T06:38:50.998Z,11.67
2023-02-12T06:41:19.458Z,11.75
2023-02-12T06:43:47.543Z,11.81
2023-02-12T06:46:16.969Z,11.89
2023-02-12T06:48:45.104Z,11.96
2023-02-12T06:51:16.056Z,12.06
2023-02-12T06:53:45.138Z,12.11
2023-02-12T06:56:14.318Z,12.19
2023-02-12T06:58:44.500Z,12.26
2023-02-12T07:01:15.433Z,12.35
2023-02-12T07:03:49.215Z,12.40
2023-02-12T07:06:17.504Z,12.43
2023-02-12T07:08:45.680Z,12.42
2023-02-12T07:11:14.318Z,12.38
2023-02-12T07:13:43.135Z,12.41
2023-02-12T07:16:13.869Z,12.41
2023-02-12T07:18:42.651Z,12.45
2023-02-12T07:21:14.790Z,12.47
2023-02-12T07:23:43.405Z,12.49
2023-02-12T07:26:13.806Z,12.55
2023-02-12T07:28:42.113Z,12.56
2023-02-12T07:31:12.154Z,12.60
2023-02-12T07:33:40.744Z,12.63
2023-02-12T07:36:13.422Z,12.68
2023-02-12T07:38:42.566Z,12.70
2023-02-12T07:41:13.536Z,12.71
2023-02-12T07:43:43.531Z,12.72
2023-02-12T07:46:13.888Z,12.75
2023-02-12T07:48:42.487Z,12.77
2023-02-12T07:51:14.691Z,12.76
2023-02-12T07:53:43.172Z,12.75
2023-02-12T07:56:13.494Z,12.74
2023-02-12T07:58:45.262Z,12.72
2023-02-12T08:01:15.794Z,12.72
2023-02-12T08:03:44.301Z,12.74
2023-02-12T08:06:17.232Z,12.74
2023-02-12T08:08:45.418Z,12.77
2023-02-12T08:11:15.082Z,12.80
2023-02-12T08:13:43.734Z,12.83
2023-02-12T08:16:14.220Z,12.88
2023-02-12T08:18:42.425Z,12.95
2023-02-12T08:21:12.984Z,12.99
2023-02-12T08:23:42.959Z,13.06
2023-02-12T08:26:12.796Z,13.12
2023-02-12T08:28:43.212Z,13.17
2023-02-12T08:31:14.003Z,13.23
2023-02-12T08:33:46.766Z,13.28
2023-02-12T08:36:17.154Z,13.32
2023-02-12T08:38:48.193Z,13.40
2023-02-12T08:41:20.548Z,13.49
2023-02-12T08:43:50.528Z,13.50
2023-02-12T08:46:22.299Z,13.58
2023-02-12T08:48:53.276Z,13.66
2023-02-12T08:51:24.317Z,13.73
2023-02-12T08:53:57.990Z,13.79
2023-02-12T08:56:27.459Z,13.84
2023-02-12T08:58:55.622Z,13.91
2023-02-12T09:01:25.730Z,13.94
2023-02-12T09:03:54.559Z,14.04
2023-02-12T09:06:24.448Z,14.06
2023-02-12T09:08:55.080Z,14.17
2023-02-12T09:11:30.490Z,14.22
2023-02-12T09:14:00.440Z,14.26
2023-02-12T09:16:28.717Z,14.35
2023-02-12T09:18:56.956Z,14.39
2023-02-12T09:21:25.299Z,14.48
2023-02-12T09:23:55.877Z,14.54
2023-02-12T09:26:25.858Z,14.61
2023-02-12T09:28:54.953Z,14.70
2023-02-12T09:31:26.746Z,14.73
2023-02-12T09:33:56.405Z,14.81
2023-02-12T09:36:25.472Z,14.86
2023-02-12T09:38:55.372Z,14.93
2023-02-12T09:42:19.166Z,15.00
2023-02-12T09:44:52.896Z,15.03
2023-02-12T09:47:27.558Z,15.10
2023-02-12T09:50:12.583Z,15.16
2023-02-12T09:52:41.353Z,15.19
2023-02-12T09:55:15.896Z,15.21
2023-02-12T09:57:44.501Z,15.24
2023-02-12T10:00:17.368Z,15.29
2023-02-12T10:02:45.478Z,15.32
2023-02-12T10:05:18.875Z,15.34
2023-02-12T10:08:04.261Z,15.28
2023-02-12T10:10:49.127Z,15.27
2023-02-12T10:13:27.572Z,15.28
2023-02-12T10:16:03.395Z,15.28
2023-02-12T10:18:53.247Z,15.33
2023-02-12T10:21:32.292Z,15.38
2023-02-12T10:24:24.940Z,15.41
2023-02-12T10:26:59.174Z,15.39
2023-02-12T10:29:30.282Z,15.44
2023-02-12T10:32:03.634Z,15.52
2023-02-12T10:34:35.795Z,15.60
2023-02-12T10:37:12.833Z,15.64
2023-02-12T10:39:46.585Z,15.66
2023-02-12T10:42:19.875Z,15.72
2023-02-12T10:44:48.292Z,15.77
2023-02-12T10:47:20.963Z,15.81
2023-02-12T10:49:57.193Z,15.91
2023-02-12T10:52:36.742Z,15.97
2023-02-12T10:55:05.025Z,16.00
2023-02-12T10:57:34.522Z,16.02
2023-02-12T11:00:23.986Z,16.04
2023-02-12T11:03:07.122Z,16.09
2023-02-12T11:05:37.634Z,16.15
2023-02-12T11:08:07.017Z,16.29
2023-02-12T11:10:39.892Z,16.43
2023-02-12T11:13:25.380Z,16.59
2023-02-12T11:15:54.065Z,16.75
2023-02-12T11:18:26.236Z,16.84
2023-02-12T11:20:57.432Z,16.89
2023-02-12T11:23:27.849Z,16.98
2023-02-12T11:25:59.538Z,17.03
2023-02-12T11:28:30.050Z,17.07
2023-02-12T11:31:00.586Z,17.15
2023-02-12T11:33:34.699Z,17.19
2023-02-12T11:36:07.522Z,17.27
2023-02-12T11:38:39.030Z,17.35
2023-02-12T11:41:20.962Z,17.46
2023-02-12T11:43:52.019Z,17.56
2023-02-12T11:46:23.006Z,17.59
2023-02-12T11:48:53.814Z,17.61
2023-02-12T11:51:26.933Z,17.65
2023-02-12T11:53:58.447Z,17.74
2023-02-12T11:56:26.668Z,17.81
2023-02-12T11:59:14.315Z,17.89
2023-02-12T12:01:42.920Z,17.93
2023-02-12T12:04:14.002Z,17.94
2023-02-12T12:06:47.513Z,18.01
2023-02-12T12:09:19.212Z,17.90
2023-02-12T12:11:58.194Z,17.88
2023-02-12T12:14:31.566Z,17.84
2023-02-12T12:17:21.187Z,17.89
2023-02-12T12:19:57.950Z,17.90
2023-02-12T12:22:40.978Z,17.97
2023-02-12T12:25:18.775Z,18.08
2023-02-12T12:28:08.305Z,18.17
2023-02-12T12:30:58.477Z,18.31
2023-02-12T12:33:37.137Z,18.46
2023-02-12T12:36:31.256Z,18.60
2023-02-12T12:39:08.553Z,18.70
2023-02-12T12:41:50.072Z,18.83
2023-02-12T12:44:35.877Z,18.91
2023-02-12T12:47:20.773Z,18.91
2023-02-12T12:50:01.942Z,18.85
2023-02-12T12:52:55.761Z,18.84
2023-02-12T12:55:41.945Z,18.90
2023-02-12T12:58:19.700Z,18.86
2023-02-12T13:01:06.731Z,18.83
2023-02-12T13:04:01.173Z,18.79
2023-02-12T13:06:46.689Z,18.78
2023-02-12T13:09:56.480Z,18.75
2023-02-12T13:12:43.465Z,18.71
2023-02-12T13:15:23.278Z,18.66
2023-02-12T13:17:58.347Z,18.58
2023-02-12T13:20:39.821Z,18.42
2023-02-12T13:23:15.734Z,18.30
2023-02-12T13:25:55.455Z,18.12
2023-02-12T13:28:30.889Z,18.06
2023-02-12T13:31:00.574Z,17.99
2023-02-12T13:33:34.142Z,17.91
2023-02-12T13:36:07.562Z,17.74
2023-02-12T13:38:39.304Z,17.66
2023-02-12T13:41:11.004Z,17.60
2023-02-12T13:43:48.633Z,17.56
2023-02-12T13:46:25.359Z,17.45
2023-02-12T13:49:01.992Z,17.51
2023-02-12T13:51:43.494Z,17.57
2023-02-12T13:54:27.163Z,17.63
2023-02-12T13:56:57.434Z,17.67
2023-02-12T13:59:48.604Z,17.79
2023-02-12T14:02:50.607Z,17.91
2023-02-12T14:05:28.771Z,17.99
2023-02-12T14:08:02.141Z,18.14
2023-02-12T14:10:33.234Z,18.20
2023-02-12T14:13:14.649Z,18.28
2023-02-12T14:15:45.399Z,18.32
2023-02-12T14:18:29.530Z,18.40
2023-02-12T14:21:43.574Z,18.46
2023-02-12T14:24:48.910Z,18.56
2023-02-12T14:27:36.118Z,18.69
2023-02-12T14:30:26.852Z,18.89
2023-02-12T14:33:22.039Z,19.18
2023-02-12T14:36:11.189Z,19.03
2023-02-12T14:39:06.153Z,18.96
2023-02-12T14:41:44.044Z,19.10
2023-02-12T14:44:41.916Z,19.52
2023-02-12T14:47:52.252Z,20.10
2023-02-12T14:50:26.740Z,20.63
2023-02-12T14:53:00.845Z,21.19
2023-02-12T14:55:33.959Z,21.65
2023-02-12T14:58:06.761Z,22.00
2023-02-12T15:00:39.437Z,21.90
2023-02-12T15:03:19.942Z,22.20
2023-02-12T15:05:54.831Z,22.72
2023-02-12T15:08:30.160Z,23.32
2023-02-12T15:11:05.138Z,23.87
2023-02-12T15:13:47.742Z,24.39
2023-02-12T15:16:24.023Z,24.93
2023-02-12T15:18:58.659Z,25.54
2023-02-12T15:21:29.476Z,25.77
2023-02-12T15:24:06.599Z,25.43
2023-02-12T15:26:40.632Z,24.87
2023-02-12T15:29:20.836Z,24.10
2023-02-12T15:31:53.193Z,23.31
2023-02-12T15:34:24.367Z,22.60
2023-02-12T15:36:52.943Z,21.92
2023-02-12T15:39:23.706Z,21.39
2023-02-12T15:41:52.505Z,20.82
2023-02-12T15:44:25.898Z,20.43
2023-02-12T15:46:58.953Z,20.02
2023-02-12T15:49:43.820Z,19.63
2023-02-12T15:52:19.427Z,19.36
2023-02-12T15:54:48.157Z,19.14
2023-02-12T15:57:22.929Z,18.87
2023-02-12T15:59:53.923Z,18.57
2023-02-12T16:02:23.839Z,18.36
2023-02-12T16:04:53.301Z,18.13
2023-02-12T16:07:21.976Z,17.98
2023-02-12T16:09:53.778Z,17.83
2023-02-12T16:12:25.789Z,17.79
2023-02-12T16:14:56.787Z,17.72
2023-02-12T16:17:30.286Z,17.66
2023-02-12T16:20:00.540Z,17.42
2023-02-12T16:22:32.228Z,17.20
2023-02-12T16:25:01.528Z,17.09
2023-02-12T16:27:31.669Z,17.20
2023-02-12T16:30:05.137Z,17.39
2023-02-12T16:32:37.904Z,17.56
2023-02-12T16:35:23.611Z,17.68
2023-02-12T16:37:57.484Z,17.61
2023-02-12T16:40:35.873Z,17.38
2023-02-12T16:43:24.519Z,17.10
2023-02-12T16:46:08.065Z,17.08
2023-02-12T16:48:44.644Z,17.31
2023-02-12T16:51:24.290Z,17.69
2023-02-12T16:54:08.146Z,18.10
2023-02-12T16:56:39.164Z,18.44
2023-02-12T16:59:07.247Z,18.51
2023-02-12T17:01:38.190Z,18.40
2023-02-12T17:04:08.545Z,18.22
2023-02-12T17:06:36.558Z,18.00
2023-02-12T17:09:04.771Z,17.74
2023-02-12T17:11:34.462Z,17.50
2023-02-12T17:14:02.446Z,17.21
2023-02-12T17:16:32.341Z,16.87
2023-02-12T17:19:01.992Z,16.60
2023-02-12T17:21:32.816Z,16.42
2023-02-12T17:24:01.150Z,16.16
2023-02-12T17:26:32.226Z,15.86
2023-02-12T17:29:05.514Z,15.59
2023-02-12T17:31:33.957Z,15.29
2023-02-12T17:34:03.702Z,15.01
2023-02-12T17:36:31.917Z,14.75
2023-02-12T17:39:04.573Z,14.53
2023-02-12T17:41:32.821Z,14.36
2023-02-12T17:44:00.904Z,14.18
2023-02-12T17:46:30.332Z,14.03
2023-02-12T17:48:58.835Z,13.86
2023-02-12T17:51:28.405Z,13.70
2023-02-12T17:53:56.769Z,13.57
2023-02-12T17:56:26.032Z,13.49
2023-02-12T17:58:54.183Z,13.40
2023-02-12T18:01:24.776Z,13.31
2023-02-12T18:03:55.544Z,13.21
2023-02-12T18:06:25.587Z,13.14
2023-02-12T18:08:55.517Z,13.07
2023-02-12T18:11:25.663Z,13.01
2023-02-12T18:13:55.760Z,12.97
2023-02-12T18:16:25.688Z,12.92
2023-02-12T18:18:54.497Z,12.88
2023-02-12T18:21:22.471Z,12.84
2023-02-12T18:23:52.730Z,12.77
2023-02-12T18:26:23.306Z,12.74
2023-02-12T18:28:51.305Z,12.71
2023-02-12T18:31:21.309Z,12.66
2023-02-12T18:33:49.800Z,12.63
2023-02-12T18:36:22.023Z,12.59
2023-02-12T18:38:51.936Z,12.60
2023-02-12T18:41:26.828Z,12.57
2023-02-12T18:43:55.399Z,12.53
2023-02-12T18:46:25.449Z,12.52
2023-02-12T18:54:48.384Z,12.45
2023-02-12T18:57:18.057Z,12.43
2023-02-12T18:59:46.153Z,12.43
2023-02-12T19:02:15.204Z,12.39
2023-02-12T19:04:43.535Z,12.38
2023-02-12T19:07:11.649Z,12.36
2023-02-12T19:09:39.803Z,12.32
2023-02-12T19:12:09.108Z,12.30
2023-02-12T19:14:38.975Z,12.29
2023-02-12T19:17:07.287Z,12.25
2023-02-12T19:19:35.523Z,12.25
2023-02-12T19:22:04.554Z,12.23
2023-02-12T19:24:45.965Z,12.22
2023-02-12T19:27:15.024Z,12.19
2023-02-12T19:29:45.747Z,12.18
2023-02-12T19:32:26.702Z,12.16
2023-02-12T19:34:55.213Z,12.16
2023-02-12T19:37:24.493Z,12.17
2023-02-12T19:39:52.606Z,12.18
2023-02-12T19:42:23.054Z,12.17
2023-02-12T19:44:53.079Z,12.19
2023-02-12T19:47:21.398Z,12.22
2023-02-12T19:49:50.012Z,12.25
2023-02-12T19:52:21.739Z,12.28
2023-02-12T19:54:52.597Z,12.31
2023-02-12T19:57:37.707Z,12.32
2023-02-12T20:00:08.852Z,12.35
2023-02-12T20:02:43.830Z,12.32
2023-02-12T20:05:16.379Z,12.29
2023-02-12T20:07:45.174Z,12.29
2023-02-12T20:10:14.824Z,12.27
2023-02-12T20:12:44.203Z,12.25
2023-02-12T20:15:16.821Z,12.21
2023-02-12T20:17:45.576Z,12.17
2023-02-12T20:20:15.391Z,12.13
2023-02-12T20:22:43.529Z,12.10
2023-02-12T20:25:12.384Z,12.09
2023-02-12T20:27:41.324Z,12.08
2023-02-12T20:30:13.976Z,12.08
2023-02-12T20:32:51.141Z,12.07
2023-02-12T20:35:21.589Z,12.07
2023-02-12T20:37:49.744Z,12.07
2023-02-12T20:40:18.713Z,12.09
2023-02-12T20:42:47.807Z,12.08
2023-02-12T20:45:19.002Z,12.08
2023-02-12T20:47:51.333Z,12.11
2023-02-12T20:50:21.439Z,12.18
2023-02-12T20:52:51.612Z,12.21
2023-02-12T20:55:19.943Z,12.24
2023-02-12T20:57:49.533Z,12.28
2023-02-12T21:00:19.638Z,12.27
2023-02-12T21:02:53.178Z,12.28
2023-02-12T21:05:22.172Z,12.25
2023-02-12T21:07:52.393Z,12.22
2023-02-12T21:10:22.535Z,12.22
2023-02-12T21:12:50.601Z,12.20
2023-02-12T21:15:18.875Z,12.17
2023-02-12T21:17:49.019Z,12.16
2023-02-12T21:20:17.635Z,12.11
2023-02-12T21:22:45.637Z,12.11
2023-02-12T21:25:13.778Z,12.08
2023-02-12T21:27:42.220Z,12.04
2023-02-12T21:30:11.200Z,12.04
2023-02-12T21:32:39.605Z,12.00
2023-02-12T21:35:11.596Z,11.97
2023-02-12T21:37:41.170Z,11.94
2023-02-12T21:40:10.835Z,11.92
2023-02-12T21:42:40.165Z,11.92
2023-02-12T21:45:16.181Z,11.91
2023-02-12T21:47:45.370Z,11.89
2023-02-12T21:50:18.973Z,11.89
2023-02-12T21:52:49.829Z,11.87
2023-02-12T21:55:19.141Z,11.87
2023-02-12T21:57:51.289Z,11.88
2023-02-12T22:00:22.133Z,11.85
2023-02-12T22:02:50.745Z,11.83
2023-02-12T22:05:22.658Z,11.80
2023-02-12T22:07:51.306Z,11.78
2023-02-12T22:10:20.110Z,11.76
2023-02-12T22:12:50.890Z,11.76
2023-02-12T22:15:20.172Z,11.72
2023-02-12T22:17:48.235Z,11.74
2023-02-12T22:20:17.080Z,11.73
2023-02-12T22:22:50.876Z,11.71
2023-02-12T22:25:23.228Z,11.72
2023-02-12T22:27:52.053Z,11.70
2023-02-12T22:30:20.738Z,11.70
2023-02-12T22:32:49.719Z,11.67
2023-02-12T22:35:19.087Z,11.66
2023-02-12T22:37:49.090Z,11.65
2023-02-12T22:40:17.549Z,11.64
2023-02-12T22:42:45.727Z,11.63
2023-02-12T22:45:13.894Z,11.63
2023-02-12T22:47:42.248Z,11.62
2023-02-12T22:50:11.546Z,11.60
2023-02-12T22:52:40.437Z,11.60
2023-02-12T22:55:10.749Z,11.64
2023-02-12T22:57:39.248Z,11.65
2023-02-12T23:00:10.226Z,11.65
2023-02-12T23:02:39.726Z,11.64
2023-02-12T23:05:09.597Z,11.63
2023-02-12T23:07:38.470Z,11.64
2023-02-12T23:10:07.604Z,11.63
2023-02-12T23:12:37.156Z,11.62
2023-02-12T23:15:05.728Z,11.59
2023-02-12T23:17:34.492Z,11.59
2023-02-12T23:20:02.619Z,11.59
2023-02-12T23:22:30.840Z,11.56
2023-02-12T23:24:59.078Z,11.57
2023-02-12T23:27:27.280Z,11.58
2023-02-12T23:29:56.869Z,11.56
2023-02-12T23:32:24.955Z,11.55
2023-02-12T23:34:52.989Z,11.55
2023-02-12T23:37:21.003Z,11.57
2023-02-12T23:39:49.068Z,11.56
2023-02-12T23:42:17.095Z,11.57
2023-02-12T23:44:45.354Z,11.58
2023-02-12T23:47:14.818Z,11.58
2023-02-12T23:49:42.973Z,11.63
2023-02-12T23:52:11.261Z,11.60
2023-02-12T23:54:41.313Z,11.60
2023-02-12T23:57:09.277Z,11.61
2023-02-12T23:59:37.470Z,11.64
